Terminal Aerodrome Forecast
Issued by NWS Albuquerque, NM

Home | Current Version | Previous Version | Text Only | Print | Product List | Glossary On
Versions: 1 2 3 4 5 6 7 8 9 10 11 12 13 14 15
000
FTUS45 KABQ 301720
TAFABQ
TAF
KABQ 301720Z 3018/3118 VRB03KT P6SM FEW090
     FM302030 24008KT P6SM SCT090
     FM310100 18005KT P6SM SCT080
     FM310900 VRB04KT P6SM BKN070=

USA.gov is the U.S. government's official web portal to all federal, state and local government web resources and services.